Time;durP1;ratioP1;P1;durP2;ratioP2;P2;SDS_P1;SDS_P2;PMS_P1;PMS_P2;Temp;Humidity;BMP_temperature;BMP_pressure;BME280_temperature;BME280_humidity;BME280_pressure;Samples;Min_cycle;Max_cycle;Signal;HPM_P1;HPM_P2
2022/02/27 00:04:00;;;;;;;22.88;4.53;;;1.70;99.90;;;;;;12540185;28;20497;-37
2022/02/27 00:10:03;;;;;;;12.73;3.65;;;1.60;99.90;;;;;;12535244;28;20168;-37
2022/02/27 00:16:05;;;;;;;14.85;3.85;;;1.50;99.90;;;;;;12535340;28;20049;-36
2022/02/27 00:22:08;;;;;;;17.05;3.67;;;1.50;99.90;;;;;;12532067;28;20052;-41
2022/02/27 00:28:09;;;;;;;17.02;3.35;;;1.60;99.90;;;;;;12535862;28;20481;-40
2022/02/27 00:34:11;;;;;;;13.32;2.92;;;1.60;99.90;;;;;;12534672;28;20934;-36
2022/02/27 00:40:13;;;;;;;15.60;3.40;;;1.50;99.90;;;;;;12536613;28;20045;-36
2022/02/27 00:46:15;;;;;;;16.52;3.15;;;1.40;99.90;;;;;;12537235;28;20052;-40
2022/02/27 00:52:22;;;;;;;11.73;3.20;;;1.40;99.90;;;;;;12535329;28;20053;-40
2022/02/27 00:58:24;;;;;;;12.40;3.40;;;1.30;99.90;;;;;;12533055;28;21357;-36
2022/02/27 01:04:26;;;;;;;14.93;3.38;;;1.30;99.90;;;;;;12534015;28;20049;-41
2022/02/27 01:10:28;;;;;;;18.23;3.75;;;1.20;99.90;;;;;;12534974;28;20053;-40
2022/02/27 01:16:31;;;;;;;15.23;3.30;;;1.10;99.90;;;;;;12534138;28;20131;-36
2022/02/27 01:22:33;;;;;;;17.70;2.67;;;1.10;99.90;;;;;;12536233;28;20489;-40
2022/02/27 01:28:36;;;;;;;13.85;2.95;;;1.00;99.90;;;;;;12536152;28;20500;-40
2022/02/27 01:34:38;;;;;;;10.52;2.53;;;1.00;99.90;;;;;;12533026;28;20108;-40
2022/02/27 01:40:40;;;;;;;9.13;2.45;;;1.00;99.90;;;;;;12533359;28;20141;-36
2022/02/27 01:46:58;;;;;;;11.60;2.38;;;1.00;99.90;;;;;;12537503;28;20041;-40
2022/02/27 01:53:00;;;;;;;9.50;3.42;;;1.00;99.90;;;;;;12536488;28;20105;-37
2022/02/27 01:59:02;;;;;;;11.02;4.70;;;0.90;99.90;;;;;;12535801;28;20041;-40
2022/02/27 02:05:04;;;;;;;16.45;5.07;;;0.60;99.90;;;;;;12535034;28;20051;-40
2022/02/27 02:11:06;;;;;;;16.58;4.25;;;0.60;99.90;;;;;;12533963;28;20055;-41
2022/02/27 02:17:08;;;;;;;17.45;5.13;;;0.60;99.90;;;;;;12543166;28;20056;-36
2022/02/27 02:23:10;;;;;;;13.85;5.07;;;0.40;99.90;;;;;;12543960;28;20175;-36
2022/02/27 02:29:18;;;;;;;15.95;4.63;;;0.20;99.90;;;;;;12448382;28;20461;-41
2022/02/27 02:35:20;;;;;;;15.70;5.07;;;0.20;99.90;;;;;;12443309;28;20057;-42
2022/02/27 02:41:22;;;;;;;13.90;4.80;;;0.10;99.90;;;;;;12441486;28;20062;-37
2022/02/27 02:47:25;;;;;;;14.77;3.50;;;-0.10;99.90;;;;;;12423836;28;20096;-41
2022/02/27 02:53:34;;;;;;;9.23;3.08;;;0.10;99.90;;;;;;12440318;28;20052;-36
2022/02/27 02:59:36;;;;;;;14.73;3.17;;;0.30;99.90;;;;;;12440570;28;20053;-40
2022/02/27 03:05:38;;;;;;;13.80;3.17;;;0.50;99.90;;;;;;12440663;28;20102;-40
2022/02/27 03:11:40;;;;;;;7.00;2.28;;;0.70;99.90;;;;;;12440035;28;20479;-36
2022/02/27 03:17:43;;;;;;;11.90;2.70;;;0.60;99.90;;;;;;12421413;28;20081;-40
2022/02/27 03:23:49;;;;;;;14.60;3.13;;;0.50;99.90;;;;;;12437460;28;20046;-40
2022/02/27 03:29:51;;;;;;;8.75;2.40;;;0.40;99.90;;;;;;12440841;28;20613;-40
2022/02/27 03:35:53;;;;;;;17.48;3.95;;;0.30;99.90;;;;;;12436693;28;20053;-36
2022/02/27 03:41:55;;;;;;;14.90;3.45;;;0.10;99.90;;;;;;12440160;28;20085;-40
2022/02/27 03:47:57;;;;;;;10.13;2.38;;;0.00;99.90;;;;;;12438898;28;20134;-36
2022/02/27 03:54:00;;;;;;;11.32;3.13;;;-0.10;99.90;;;;;;12440908;28;20042;-36
2022/02/27 04:00:04;;;;;;;8.60;2.60;;;-0.20;99.90;;;;;;12436434;28;20053;-40
2022/02/27 04:06:06;;;;;;;9.98;2.72;;;-0.20;99.90;;;;;;12435650;28;20048;-37
2022/02/27 04:12:09;;;;;;;12.80;2.80;;;-0.20;99.90;;;;;;12433010;28;20053;-36
2022/02/27 04:18:10;;;;;;;9.32;3.15;;;-0.20;99.90;;;;;;12436760;28;20093;-37
2022/02/27 04:24:12;;;;;;;12.75;2.80;;;-0.30;99.90;;;;;;12447089;28;20106;-40
2022/02/27 04:30:14;;;;;;;13.00;3.60;;;-0.30;99.90;;;;;;12532071;28;20150;-42
2022/02/27 04:36:16;;;;;;;12.45;2.80;;;-0.30;99.90;;;;;;12535245;28;20048;-38
2022/02/27 04:42:18;;;;;;;12.93;3.05;;;-0.40;99.90;;;;;;12530577;28;20057;-36
2022/02/27 04:48:20;;;;;;;12.10;3.60;;;-0.40;99.90;;;;;;12537938;28;20060;-40
2022/02/27 04:54:22;;;;;;;13.80;3.22;;;-0.40;99.90;;;;;;12535147;28;20088;-36
2022/02/27 05:00:24;;;;;;;14.48;3.88;;;-0.40;99.90;;;;;;12530498;28;20060;-36
2022/02/27 05:06:26;;;;;;;16.77;3.50;;;-0.40;99.90;;;;;;12534570;28;20139;-37
2022/02/27 05:12:28;;;;;;;12.30;3.67;;;-0.40;99.90;;;;;;12526505;28;20719;-36
2022/02/27 05:18:30;;;;;;;11.15;3.33;;;-0.50;99.90;;;;;;12530201;28;20178;-40
2022/02/27 05:24:32;;;;;;;11.27;4.10;;;-0.50;99.90;;;;;;12532445;28;20060;-40
2022/02/27 05:30:34;;;;;;;13.75;3.53;;;-0.50;99.90;;;;;;12536933;28;20049;-40
2022/02/27 05:36:36;;;;;;;14.73;3.38;;;-0.40;99.90;;;;;;12530690;28;20061;-36
2022/02/27 05:42:38;;;;;;;12.38;3.47;;;-0.40;99.90;;;;;;12531312;28;20163;-39
2022/02/27 05:48:40;;;;;;;15.45;4.50;;;-0.50;99.90;;;;;;12544717;28;20074;-40
2022/02/27 05:54:42;;;;;;;15.30;3.33;;;-0.50;99.90;;;;;;12539259;28;20424;-37
2022/02/27 06:00:44;;;;;;;16.35;4.30;;;-0.60;99.90;;;;;;12541203;28;20148;-41
2022/02/27 06:06:46;;;;;;;13.43;4.80;;;-0.70;99.90;;;;;;12539547;28;20060;-36
2022/02/27 06:12:49;;;;;;;16.48;6.13;;;-0.70;99.90;;;;;;12541871;28;20174;-36
2022/02/27 06:18:51;;;;;;;19.20;5.63;;;-0.70;99.90;;;;;;12539272;28;20130;-36
2022/02/27 06:24:53;;;;;;;16.48;4.72;;;-0.60;99.90;;;;;;12539044;28;20052;-41
2022/02/27 06:30:55;;;;;;;14.02;5.32;;;-0.50;99.90;;;;;;12537547;28;20452;-41
2022/02/27 06:36:57;;;;;;;12.02;5.65;;;-0.40;99.90;;;;;;12540128;28;20621;-37
2022/02/27 06:43:06;;;;;;;12.93;5.32;;;-0.30;99.90;;;;;;12536113;28;21166;-37
2022/02/27 06:49:08;;;;;;;13.35;5.78;;;-0.30;99.90;;;;;;12537062;28;20048;-36
2022/02/27 06:55:15;;;;;;;14.75;5.00;;;-0.10;99.90;;;;;;12534470;28;20565;-36
2022/02/27 07:01:18;;;;;;;14.20;7.55;;;0.00;99.90;;;;;;12539379;28;20053;-41
2022/02/27 07:07:20;;;;;;;18.52;5.13;;;0.00;99.90;;;;;;12535815;28;20053;-36
2022/02/27 07:13:22;;;;;;;11.38;4.65;;;0.00;99.90;;;;;;12534121;28;20056;-40
2022/02/27 07:19:25;;;;;;;15.38;4.45;;;0.10;99.90;;;;;;12517987;28;20544;-38
2022/02/27 07:25:27;;;;;;;12.70;4.95;;;0.30;99.90;;;;;;12533345;28;20148;-36
2022/02/27 07:31:30;;;;;;;18.13;5.43;;;0.40;99.90;;;;;;12538989;28;20099;-36
2022/02/27 07:37:34;;;;;;;12.80;4.85;;;0.50;99.90;;;;;;12538360;28;20045;-40
2022/02/27 07:43:36;;;;;;;15.07;4.90;;;0.60;99.90;;;;;;12535297;28;20048;-36
2022/02/27 07:49:38;;;;;;;16.52;5.47;;;0.80;99.90;;;;;;12537157;28;20333;-40
2022/02/27 07:55:39;;;;;;;11.13;4.30;;;1.00;99.90;;;;;;12534908;28;20556;-36
2022/02/27 08:01:41;;;;;;;16.08;4.95;;;1.30;99.90;;;;;;12537118;28;20092;-36
2022/02/27 08:07:44;;;;;;;12.38;4.57;;;1.50;99.90;;;;;;12534345;28;20048;-40
2022/02/27 08:13:46;;;;;;;14.82;4.80;;;2.00;99.90;;;;;;12536956;28;20493;-43
2022/02/27 08:19:48;;;;;;;18.70;4.60;;;2.30;99.90;;;;;;12532311;28;20550;-37
2022/02/27 08:25:53;;;;;;;15.15;5.10;;;2.60;99.90;;;;;;12536831;28;20056;-42
2022/02/27 08:32:01;;;;;;;9.65;4.13;;;2.90;99.90;;;;;;12531119;28;20052;-37
2022/02/27 08:38:03;;;;;;;11.90;3.85;;;3.20;99.90;;;;;;12534244;28;20462;-37
2022/02/27 08:44:05;;;;;;;20.23;4.10;;;3.50;99.90;;;;;;12534518;28;20063;-36
2022/02/27 08:50:08;;;;;;;11.35;4.38;;;3.60;99.90;;;;;;12531873;28;21448;-40
2022/02/27 08:56:12;;;;;;;12.00;4.03;;;3.90;99.90;;;;;;12533812;28;20053;-41
2022/02/27 09:02:14;;;;;;;11.65;3.40;;;4.10;99.90;;;;;;12530835;28;20056;-41
2022/02/27 09:08:16;;;;;;;11.90;3.72;;;4.30;99.90;;;;;;12529518;28;20469;-36
2022/02/27 09:14:20;;;;;;;11.75;3.88;;;4.40;99.90;;;;;;12533844;28;22759;-41
2022/02/27 09:20:22;;;;;;;9.23;3.58;;;4.70;99.90;;;;;;12532755;28;20053;-40
2022/02/27 09:26:24;;;;;;;10.60;3.10;;;4.90;99.90;;;;;;12537693;28;20089;-37
2022/02/27 09:32:33;;;;;;;9.40;2.80;;;5.00;99.90;;;;;;12543066;28;20051;-40
2022/02/27 09:38:35;;;;;;;11.50;2.80;;;5.10;99.90;;;;;;12541743;28;20044;-42
2022/02/27 09:44:40;;;;;;;12.55;3.15;;;5.30;99.90;;;;;;12542397;28;20048;-37
2022/02/27 09:50:42;;;;;;;9.18;2.92;;;5.40;99.90;;;;;;12544493;28;20071;-36
2022/02/27 09:56:44;;;;;;;10.23;2.85;;;5.50;99.90;;;;;;12537017;28;20045;-36
2022/02/27 10:03:09;;;;;;;7.50;3.20;;;5.70;99.90;;;;;;12538209;28;20128;-40
2022/02/27 10:09:21;;;;;;;10.98;3.10;;;5.70;99.90;;;;;;12539831;28;20044;-37
2022/02/27 10:15:23;;;;;;;7.93;2.90;;;6.00;99.90;;;;;;12520241;28;20064;-41
2022/02/27 10:21:41;;;;;;;8.90;3.00;;;6.00;99.90;;;;;;12538689;28;20060;-36
2022/02/27 10:27:55;;;;;;;9.70;3.05;;;6.20;99.90;;;;;;12537730;28;20433;-37
2022/02/27 10:33:58;;;;;;;9.57;3.00;;;6.50;99.90;;;;;;12534315;28;20151;-37
2022/02/27 10:40:00;;;;;;;8.75;2.67;;;6.70;99.90;;;;;;12538563;28;20079;-37
2022/02/27 10:46:08;;;;;;;9.68;2.45;;;6.70;99.90;;;;;;12540633;28;20049;-36
2022/02/27 10:52:12;;;;;;;8.18;2.60;;;6.70;99.90;;;;;;12536952;28;20072;-36
2022/02/27 10:58:14;;;;;;;8.38;2.72;;;6.90;99.90;;;;;;12523212;28;20102;-36
2022/02/27 11:04:16;;;;;;;10.07;2.50;;;6.90;99.90;;;;;;12535789;28;20057;-37
2022/02/27 11:10:19;;;;;;;6.00;2.03;;;7.10;99.90;;;;;;12535939;28;21014;-40
2022/02/27 11:16:22;;;;;;;5.88;2.00;;;7.00;99.90;;;;;;12538312;28;20086;-41
2022/02/27 11:22:25;;;;;;;10.48;2.22;;;7.10;99.90;;;;;;12534111;28;20476;-37
2022/02/27 11:28:27;;;;;;;6.47;1.95;;;6.90;99.90;;;;;;12518758;28;20164;-41
2022/02/27 11:34:38;;;;;;;6.40;1.92;;;6.90;99.90;;;;;;12535504;28;20049;-40
2022/02/27 11:40:47;;;;;;;5.32;2.08;;;7.00;99.90;;;;;;12518308;28;20059;-40
2022/02/27 11:47:09;;;;;;;4.60;1.90;;;7.00;99.90;;;;;;12537318;28;20459;-43
2022/02/27 11:53:22;;;;;;;9.43;2.30;;;7.10;99.90;;;;;;12535076;28;20052;-37
2022/02/27 11:59:46;;;;;;;7.35;2.10;;;7.20;99.90;;;;;;12531222;28;20118;-41
2022/02/27 12:05:48;;;;;;;5.38;2.05;;;7.50;99.90;;;;;;12534025;28;20789;-36
2022/02/27 12:11:50;;;;;;;4.53;1.70;;;7.60;99.90;;;;;;12516107;28;20651;-40
2022/02/27 12:18:03;;;;;;;5.32;2.05;;;7.50;99.90;;;;;;12532717;28;20049;-41
2022/02/27 12:24:23;;;;;;;6.63;2.20;;;7.50;99.90;;;;;;12534877;28;20068;-37
2022/02/27 12:30:25;;;;;;;4.13;1.63;;;7.80;99.90;;;;;;12521559;28;20109;-37
2022/02/27 12:36:37;;;;;;;5.30;1.85;;;7.80;99.90;;;;;;12537231;28;20064;-41
2022/02/27 12:42:40;;;;;;;4.50;1.70;;;8.10;99.90;;;;;;12530938;28;20090;-37
2022/02/27 12:55:19;;;;;;;4.05;1.52;;;8.10;99.90;;;;;;12535293;28;20049;-40
2022/02/27 13:01:31;;;;;;;4.15;1.73;;;8.10;99.90;;;;;;12507654;28;20135;-38
2022/02/27 13:07:33;;;;;;;5.25;1.77;;;8.20;99.90;;;;;;12531996;28;20061;-37
2022/02/27 13:13:39;;;;;;;5.57;1.73;;;8.10;99.90;;;;;;12534344;28;20061;-41
2022/02/27 13:19:41;;;;;;;5.43;1.55;;;8.10;99.90;;;;;;12528614;28;20178;-37
2022/02/27 13:25:43;;;;;;;4.00;1.60;;;8.10;99.90;;;;;;12491871;28;20054;-41
2022/02/27 13:31:49;;;;;;;5.25;1.70;;;8.30;99.90;;;;;;12427571;28;20046;-37
2022/02/27 13:37:59;;;;;;;5.10;1.40;;;8.20;99.90;;;;;;12431425;28;20068;-41
2022/02/27 13:44:02;;;;;;;5.50;1.85;;;8.10;99.90;;;;;;12431719;28;20090;-41
2022/02/27 13:50:20;;;;;;;7.25;1.85;;;8.10;99.90;;;;;;12427695;28;20046;-42
2022/02/27 13:56:22;;;;;;;5.20;1.42;;;8.00;99.90;;;;;;12431691;28;20140;-41
2022/02/27 14:02:33;;;;;;;5.30;1.60;;;7.90;99.90;;;;;;12413700;28;20068;-41
2022/02/27 14:08:37;;;;;;;3.58;1.58;;;8.00;99.90;;;;;;12442040;28;20529;-37
2022/02/27 14:14:42;;;;;;;5.93;2.00;;;7.90;99.90;;;;;;12439917;28;20080;-41
2022/02/27 14:20:45;;;;;;;6.28;2.33;;;7.70;99.90;;;;;;12442982;28;20144;-40
2022/02/27 14:26:59;;;;;;;5.38;2.00;;;7.70;99.90;;;;;;12463924;28;20180;-42
2022/02/27 14:33:01;;;;;;;5.43;2.17;;;7.70;99.90;;;;;;12483422;28;20169;-37
2022/02/27 14:39:04;;;;;;;4.07;1.70;;;7.70;99.90;;;;;;12484430;28;20057;-40
2022/02/27 14:45:06;;;;;;;5.88;1.95;;;7.70;99.90;;;;;;12488614;28;20049;-37
2022/02/27 14:51:10;;;;;;;4.80;2.10;;;7.60;99.90;;;;;;12487948;28;20250;-41
2022/02/27 14:57:12;;;;;;;8.52;2.70;;;7.50;99.90;;;;;;12484363;28;20405;-41
2022/02/27 15:03:19;;;;;;;10.25;2.47;;;7.40;99.90;;;;;;12481075;28;20047;-41
2022/02/27 15:09:21;;;;;;;6.82;2.70;;;7.50;99.90;;;;;;12490328;28;20080;-36
2022/02/27 15:15:26;;;;;;;6.47;2.50;;;7.50;99.90;;;;;;12481960;28;20049;-41
2022/02/27 15:21:28;;;;;;;6.50;2.70;;;7.40;99.90;;;;;;12483617;28;20558;-37
2022/02/27 15:27:31;;;;;;;7.10;2.70;;;7.40;99.90;;;;;;12453559;28;20112;-41
2022/02/27 15:33:33;;;;;;;10.27;2.42;;;7.30;99.90;;;;;;12436327;28;20053;-41
2022/02/27 15:39:39;;;;;;;9.10;2.63;;;7.30;99.90;;;;;;12437609;28;20103;-36
2022/02/27 15:45:41;;;;;;;7.90;2.60;;;7.30;99.90;;;;;;12439365;28;20050;-37
2022/02/27 15:51:43;;;;;;;6.68;2.10;;;7.20;99.90;;;;;;12434655;28;20068;-43
2022/02/27 15:57:44;;;;;;;6.63;2.20;;;7.20;99.90;;;;;;12435491;28;20046;-41
2022/02/27 16:03:46;;;;;;;8.93;2.83;;;7.10;99.90;;;;;;12435722;28;20058;-40
2022/02/27 16:09:48;;;;;;;8.80;2.78;;;7.00;99.90;;;;;;12437771;28;20132;-37
2022/02/27 16:15:52;;;;;;;7.47;2.58;;;6.90;99.90;;;;;;12434662;28;20049;-38
2022/02/27 16:21:59;;;;;;;7.32;2.50;;;6.80;99.90;;;;;;12429651;28;21597;-41
2022/02/27 16:28:01;;;;;;;8.45;2.83;;;6.60;99.90;;;;;;12510117;28;20061;-40
2022/02/27 16:34:03;;;;;;;5.13;2.65;;;6.50;99.90;;;;;;12533337;28;20139;-42
2022/02/27 16:40:05;;;;;;;9.02;3.35;;;6.40;99.90;;;;;;12536126;28;20526;-41
2022/02/27 16:46:07;;;;;;;8.55;2.95;;;6.20;99.90;;;;;;12534422;28;20543;-37
2022/02/27 16:52:10;;;;;;;13.98;3.95;;;6.10;99.90;;;;;;12531857;28;20131;-43
2022/02/27 16:58:12;;;;;;;8.60;3.25;;;6.00;99.90;;;;;;12530978;28;20048;-37
2022/02/27 17:04:14;;;;;;;8.90;3.53;;;5.80;99.90;;;;;;12529019;28;20045;-40
2022/02/27 17:10:16;;;;;;;11.98;3.47;;;5.70;99.90;;;;;;12532785;28;20048;-40
2022/02/27 17:16:19;;;;;;;8.48;3.35;;;5.50;99.90;;;;;;12531635;28;20179;-36
2022/02/27 17:22:21;;;;;;;12.32;3.55;;;5.40;99.90;;;;;;12531880;28;20081;-41
2022/02/27 17:28:23;;;;;;;8.75;3.20;;;5.20;99.90;;;;;;12532291;28;20075;-37
2022/02/27 17:34:25;;;;;;;7.25;3.15;;;5.00;99.90;;;;;;12527466;28;20052;-36
2022/02/27 17:40:28;;;;;;;8.70;3.20;;;4.80;99.90;;;;;;12537477;28;20053;-37
2022/02/27 17:46:30;;;;;;;11.15;3.25;;;4.70;99.90;;;;;;12545290;28;20146;-38
2022/02/27 17:52:32;;;;;;;9.00;3.50;;;4.50;99.90;;;;;;12541571;28;20061;-40
2022/02/27 17:58:33;;;;;;;10.05;3.40;;;4.50;99.90;;;;;;12538357;28;20097;-42
2022/02/27 18:04:35;;;;;;;7.88;3.45;;;4.30;99.90;;;;;;12520484;28;20087;-37
2022/02/27 18:10:37;;;;;;;10.27;3.47;;;4.20;99.90;;;;;;12538706;28;20689;-37
2022/02/27 18:16:39;;;;;;;8.65;2.95;;;4.10;99.90;;;;;;12544523;28;20506;-40
2022/02/27 18:22:41;;;;;;;10.55;2.75;;;4.00;99.90;;;;;;12540771;28;20501;-37
2022/02/27 18:28:43;;;;;;;7.40;3.13;;;3.70;99.90;;;;;;12540113;28;20057;-40
2022/02/27 18:34:45;;;;;;;8.65;3.28;;;3.70;99.90;;;;;;12539634;28;20060;-37
2022/02/27 18:40:47;;;;;;;6.32;2.83;;;3.90;99.90;;;;;;12542713;28;20505;-42
2022/02/27 18:46:49;;;;;;;8.10;3.30;;;3.90;99.90;;;;;;12539768;28;20205;-40
2022/02/27 18:52:51;;;;;;;7.75;2.83;;;3.80;99.90;;;;;;12538486;28;20053;-41
2022/02/27 18:58:53;;;;;;;10.20;2.70;;;3.50;99.90;;;;;;12520272;28;20163;-36
2022/02/27 19:04:55;;;;;;;8.82;2.90;;;3.40;99.90;;;;;;12538632;28;20097;-41
2022/02/27 19:10:57;;;;;;;5.75;2.67;;;3.30;99.90;;;;;;12539569;28;21472;-37
2022/02/27 19:16:59;;;;;;;8.95;2.70;;;3.30;99.90;;;;;;12538611;28;20634;-41
2022/02/27 19:23:01;;;;;;;7.78;3.00;;;3.40;99.90;;;;;;12540716;28;20049;-37
2022/02/27 19:29:04;;;;;;;7.95;2.92;;;3.50;99.90;;;;;;12537601;28;20147;-37
2022/02/27 19:35:07;;;;;;;8.40;2.83;;;3.50;99.90;;;;;;12540404;28;20098;-40
2022/02/27 19:41:09;;;;;;;6.05;2.58;;;3.50;99.90;;;;;;12537591;28;20045;-37
2022/02/27 19:47:11;;;;;;;5.53;2.72;;;3.60;99.90;;;;;;12538680;28;21306;-37
2022/02/27 19:53:13;;;;;;;6.25;3.00;;;3.50;99.90;;;;;;12538877;28;20063;-36
2022/02/27 19:59:15;;;;;;;6.53;3.30;;;3.50;99.90;;;;;;12536775;28;20112;-37
2022/02/27 20:05:17;;;;;;;7.40;2.80;;;3.50;99.90;;;;;;12535130;28;20375;-40
2022/02/27 20:11:19;;;;;;;6.78;3.22;;;3.40;99.90;;;;;;12540660;28;20045;-40
2022/02/27 20:17:21;;;;;;;7.95;4.38;;;3.40;99.90;;;;;;12532981;28;20488;-40
2022/02/27 20:23:25;;;;;;;6.90;3.80;;;3.40;99.90;;;;;;12534305;28;20481;-41
2022/02/27 20:29:27;;;;;;;8.07;4.43;;;3.40;99.90;;;;;;12534517;28;20443;-40
2022/02/27 20:35:29;;;;;;;8.23;5.30;;;3.40;99.90;;;;;;12537072;28;20224;-39
2022/02/27 20:41:31;;;;;;;10.35;5.32;;;3.30;99.90;;;;;;12517837;28;20070;-36
2022/02/27 20:47:34;;;;;;;11.27;5.50;;;3.40;99.90;;;;;;12534681;28;20063;-41
2022/02/27 20:53:36;;;;;;;11.43;6.55;;;3.60;99.90;;;;;;12535498;28;20048;-41
2022/02/27 20:59:39;;;;;;;13.20;6.85;;;3.60;99.90;;;;;;12534859;28;20057;-36
2022/02/27 21:05:41;;;;;;;15.43;8.73;;;3.60;99.90;;;;;;12531534;28;20052;-40
2022/02/27 21:11:42;;;;;;;10.98;6.75;;;3.60;99.90;;;;;;12532470;28;20078;-41
2022/02/27 21:17:45;;;;;;;11.15;6.50;;;3.60;99.90;;;;;;12536410;28;20059;-40
2022/02/27 21:23:47;;;;;;;14.25;6.65;;;3.60;99.90;;;;;;12530090;28;20296;-40
2022/02/27 21:29:50;;;;;;;15.35;7.03;;;3.60;99.90;;;;;;12532518;28;20048;-40
2022/02/27 21:35:53;;;;;;;11.80;6.60;;;3.60;99.90;;;;;;12527176;28;20041;-42
2022/02/27 21:41:56;;;;;;;12.23;6.53;;;3.70;99.90;;;;;;12530758;28;20505;-37
2022/02/27 21:47:58;;;;;;;14.18;7.18;;;3.60;99.90;;;;;;12534982;28;20061;-39
2022/02/27 21:53:59;;;;;;;14.05;7.07;;;3.50;99.90;;;;;;12532288;28;20096;-37
2022/02/27 22:00:04;;;;;;;12.80;7.50;;;3.60;99.90;;;;;;12533525;28;20045;-37
2022/02/27 22:06:06;;;;;;;15.65;8.20;;;3.60;99.90;;;;;;12528174;28;20047;-40
2022/02/27 22:12:09;;;;;;;14.68;8.10;;;3.60;99.90;;;;;;12532106;28;20131;-42
2022/02/27 22:18:11;;;;;;;15.05;7.07;;;3.60;99.90;;;;;;12530152;28;20619;-42
2022/02/27 22:24:13;;;;;;;14.98;8.25;;;3.50;99.90;;;;;;12533074;28;20056;-37
2022/02/27 22:30:15;;;;;;;14.45;7.38;;;3.50;99.90;;;;;;12539856;28;20076;-37
2022/02/27 22:36:17;;;;;;;13.70;7.55;;;3.50;99.90;;;;;;12540046;28;20101;-41
2022/02/27 22:42:19;;;;;;;13.95;8.20;;;3.50;99.90;;;;;;12538568;28;20117;-36
2022/02/27 22:48:22;;;;;;;14.55;8.50;;;3.40;99.90;;;;;;12540710;28;20125;-38
2022/02/27 22:54:24;;;;;;;18.65;8.27;;;3.30;99.90;;;;;;12540233;28;20105;-37
2022/02/27 23:00:57;;;;;;;14.52;7.85;;;3.30;99.90;;;;;;12540033;28;20063;-40
2022/02/27 23:07:00;;;;;;;17.63;7.70;;;3.40;99.90;;;;;;12531022;28;20056;-37
2022/02/27 23:13:02;;;;;;;16.05;8.50;;;3.30;99.90;;;;;;12535609;28;20560;-40
2022/02/27 23:19:04;;;;;;;16.70;8.13;;;3.30;99.90;;;;;;12535947;28;20144;-41
2022/02/27 23:25:07;;;;;;;15.00;7.55;;;3.30;99.90;;;;;;12523026;28;20083;-36
2022/02/27 23:31:09;;;;;;;14.55;7.22;;;3.30;99.90;;;;;;12486279;28;20049;-41
2022/02/27 23:37:11;;;;;;;15.57;7.40;;;3.20;99.90;;;;;;12483812;28;20045;-36
2022/02/27 23:43:14;;;;;;;13.75;7.47;;;3.10;99.90;;;;;;12487944;28;20053;-37
2022/02/27 23:49:16;;;;;;;14.63;7.30;;;3.10;99.90;;;;;;12486110;28;20498;-36
2022/02/27 23:55:18;;;;;;;16.10;7.10;;;3.10;99.90;;;;;;12487686;28;20721;-40
